Terminal Aerodrome Forecast
Issued by NWS

Home | Current Version | Previous Version | Text Only | Print | Product List | Glossary On
Versions: 1 2 3 4 5 6 7 8 9 10 11 12 13
000
FTUS45 KMSO 060520
TAFSMN
TAF
KSMN 060520Z 0606/0706 36011G20KT P6SM BKN070
     FM060900 VRB06KT P6SM SCT080
     FM062100 02006KT P6SM VCSH BKN050
     FM070100 02012G20KT P6SM -SHRA OVC050
      AMD LTD TO CLD VIS AND WIND=

USA.gov is the U.S. government's official web portal to all federal, state and local government web resources and services.